createdAt,value
2022-08-21T00:40:36.611Z,16.5
2022-08-21T01:10:37.734Z,16.6
2022-08-21T01:20:37.862Z,16.7
2022-08-21T01:50:39.157Z,16.4
2022-08-21T02:00:39.673Z,16.2
2022-08-21T02:10:40.067Z,16.1
2022-08-21T03:00:42.490Z,15.6
2022-08-21T03:10:42.557Z,15.5
2022-08-21T03:20:43.473Z,15.4
2022-08-21T03:30:43.922Z,15.3
2022-08-21T03:40:44.825Z,15.2
2022-08-21T03:50:45.037Z,15.2
2022-08-21T04:00:45.462Z,15.1
2022-08-21T04:10:45.550Z,15
2022-08-21T04:20:50.383Z,15
2022-08-21T04:30:46.100Z,15
2022-08-21T04:40:47.126Z,14.9
2022-08-21T05:00:48.683Z,15
2022-08-21T05:10:48.909Z,15.1
2022-08-21T05:20:49.272Z,15.8
2022-08-21T05:30:49.387Z,16.5
2022-08-21T05:40:50.319Z,16.9
2022-08-21T05:50:50.631Z,17.3
2022-08-21T06:00:50.930Z,17.8
2022-08-21T06:10:51.402Z,17.9
2022-08-21T06:20:51.898Z,18.2
2022-08-21T06:30:52.507Z,18.7
2022-08-21T06:40:52.692Z,19
2022-08-21T07:00:57.623Z,19.6
2022-08-21T07:10:55.362Z,20.2
2022-08-21T07:20:56.143Z,20.3
2022-08-21T07:30:56.608Z,20.7
2022-08-21T07:40:57.410Z,21
2022-08-21T07:50:57.522Z,20.8
2022-08-21T08:00:58.025Z,21.1
2022-08-21T08:10:58.089Z,21.1
2022-08-21T08:20:59.145Z,21.6
2022-08-21T08:30:59.377Z,22
2022-08-21T08:41:00.205Z,22.3
2022-08-21T08:51:00.548Z,21.8
2022-08-21T09:01:01.206Z,22.3
2022-08-21T09:11:02.190Z,22.4
2022-08-21T09:21:03.033Z,22.4
2022-08-21T09:41:04.302Z,22.4
2022-08-21T09:51:05.278Z,22.6
2022-08-21T10:01:06.055Z,23.3
2022-08-21T10:11:06.246Z,23.1
2022-08-21T10:21:09.171Z,23.4
2022-08-21T10:31:06.882Z,24.1
2022-08-21T11:01:07.970Z,24.1
2022-08-21T11:11:08.886Z,24
2022-08-21T11:21:09.567Z,24.7
2022-08-21T11:51:11.016Z,24.5
2022-08-21T12:01:12.005Z,24.2
2022-08-21T12:51:15.478Z,25.8
2022-08-21T13:01:15.672Z,25.8
2022-08-21T13:11:16.672Z,25.9
2022-08-21T13:21:16.980Z,25.7
2022-08-21T13:31:17.137Z,26.1
2022-08-21T13:31:22.424Z,26.1
2022-08-21T13:51:23.755Z,25.9
2022-08-21T14:11:24.780Z,24.8
2022-08-21T15:11:41.624Z,24.4
2022-08-21T16:21:33.543Z,24.7
2022-08-21T16:51:35.737Z,23.8
2022-08-21T17:21:38.195Z,23.6
2022-08-21T18:51:45.366Z,20.8
2022-08-21T20:41:47.971Z,18.7
2022-08-21T20:51:48.995Z,18.6
2022-08-21T21:01:49.344Z,18.4
2022-08-21T22:01:51.443Z,18.2
